Time;durP1;ratioP1;P1;durP2;ratioP2;P2;SDS_P1;SDS_P2;PMS_P1;PMS_P2;Temp;Humidity;BMP_temperature;BMP_pressure;BME280_temperature;BME280_humidity;BME280_pressure;Samples;Min_cycle;Max_cycle;Signal;HPM_P1;HPM_P2
2022/11/26 00:01:16;;;;;;;24.08;14.40;;;;;;;3.83;100.00;101300.66;5017873;28;20107;-76
2022/11/26 00:03:42;;;;;;;21.45;13.63;;;;;;;2.73;100.00;101149.00;5015080;28;20458;-76
2022/11/26 00:06:24;;;;;;;27.33;16.02;;;;;;;3.21;100.00;101192.50;4989437;28;20092;-77
2022/11/26 00:08:50;;;;;;;24.73;14.07;;;;;;;3.91;100.00;101304.47;5011171;28;20049;-77
2022/11/26 00:11:16;;;;;;;28.70;16.38;;;;;;;3.68;100.00;101268.88;5006539;28;20524;-77
2022/11/26 00:13:42;;;;;;;25.08;15.35;;;;;;;3.68;100.00;101292.25;5008938;28;20524;-76
2022/11/26 00:16:13;;;;;;;23.77;13.82;;;;;;;2.96;100.00;101175.94;4990997;28;20062;-77
2022/11/26 00:18:38;;;;;;;25.63;15.27;;;;;;;3.71;100.00;101305.34;5002032;28;20058;-78
2022/11/26 00:21:17;;;;;;;22.75;14.02;;;;;;;3.37;100.00;101241.63;5000852;28;20056;-76
2022/11/26 00:23:43;;;;;;;22.20;13.05;;;;;;;2.98;100.00;101171.69;4995025;28;20046;-77
2022/11/26 00:26:15;;;;;;;22.90;13.00;;;;;;;3.65;100.00;101292.97;4994241;28;20061;-78
2022/11/26 00:28:49;;;;;;;23.20;12.82;;;;;;;2.75;100.00;101130.13;4989972;28;20049;-76
2022/11/26 00:31:15;;;;;;;21.58;12.45;;;;;;;2.60;100.00;101128.56;5002874;28;20044;-78
2022/11/26 00:33:41;;;;;;;21.67;13.18;;;;;;;3.58;100.00;101289.25;5008156;28;20394;-78
2022/11/26 00:36:32;;;;;;;19.20;12.23;;;;;;;3.83;100.00;101292.88;4989858;28;20069;-76
2022/11/26 00:39:05;;;;;;;21.85;12.65;;;;;;;3.33;100.00;101217.28;4986274;28;20062;-77
2022/11/26 00:41:37;;;;;;;23.05;13.85;;;;;;;3.58;100.00;101286.66;5006671;28;20057;-75
2022/11/26 00:44:02;;;;;;;25.40;14.45;;;;;;;3.72;100.00;101305.41;5016705;28;20054;-77
2022/11/26 00:46:28;;;;;;;21.83;11.95;;;;;;;3.01;100.00;101176.13;4987807;28;20496;-75
2022/11/26 00:48:53;;;;;;;20.67;11.40;;;;;;;3.85;100.00;101283.44;5009159;28;20049;-76
2022/11/26 00:51:26;;;;;;;21.73;13.20;;;;;;;3.70;100.00;101249.03;5010318;28;20469;-77
2022/11/26 00:53:55;;;;;;;21.75;11.55;;;;;;;3.70;100.00;101251.63;5002760;28;20424;-74
2022/11/26 00:56:21;;;;;;;18.85;12.32;;;;;;;3.02;100.00;101160.66;5008400;28;20038;-76
2022/11/26 00:58:48;;;;;;;26.85;13.93;;;;;;;2.90;100.00;101152.31;4999251;28;20046;-77
2022/11/26 01:01:20;;;;;;;24.25;13.70;;;;;;;3.72;100.00;101291.53;4995402;28;20057;-77
2022/11/26 01:03:47;;;;;;;18.58;12.00;;;;;;;2.98;100.00;101150.97;5007860;28;20053;-76
2022/11/26 01:06:16;;;;;;;23.83;14.55;;;;;;;3.66;100.00;101271.41;4993048;28;20513;-75
2022/11/26 01:08:42;;;;;;;19.77;11.65;;;;;;;3.88;100.00;101298.25;5016562;28;20045;-76
2022/11/26 01:11:14;;;;;;;19.00;10.68;;;;;;;3.74;100.00;101264.81;5003985;28;20048;-78
2022/11/26 01:13:42;;;;;;;24.73;14.45;;;;;;;3.82;100.00;101301.50;5005214;28;20072;-76
2022/11/26 01:16:22;;;;;;;22.50;13.57;;;;;;;3.85;100.00;101312.00;5002546;28;20042;-75
2022/11/26 01:18:49;;;;;;;21.10;13.75;;;;;;;3.88;100.00;101312.09;5004502;28;20096;-77
2022/11/26 01:21:15;;;;;;;19.23;12.15;;;;;;;2.95;100.00;101174.16;4997260;28;20502;-76
2022/11/26 01:23:41;;;;;;;27.00;13.52;;;;;;;3.01;100.00;101186.50;4987447;28;20655;-76
2022/11/26 01:26:13;;;;;;;22.92;15.63;;;;;;;3.44;100.00;101268.72;4991671;28;20053;-76
2022/11/26 01:28:39;;;;;;;25.30;13.73;;;;;;;3.55;100.00;101296.88;4988366;28;20045;-76
2022/11/26 01:31:06;;;;;;;19.08;12.38;;;;;;;2.86;100.00;101177.25;4991323;28;20052;-75
2022/11/26 01:33:31;;;;;;;26.90;14.45;;;;;;;3.73;100.00;101322.75;4999993;28;20049;-76
2022/11/26 01:35:57;;;;;;;20.70;13.82;;;;;;;3.03;100.00;101223.75;4998015;28;20132;-76
2022/11/26 01:38:22;;;;;;;19.30;13.05;;;;;;;2.91;100.00;101237.94;4990688;28;20049;-77
2022/11/26 01:41:08;;;;;;;25.92;12.70;;;;;;;2.87;100.00;101212.69;5004443;28;20057;-76
2022/11/26 01:43:41;;;;;;;21.23;11.68;;;;;;;3.30;100.00;101326.09;4996707;28;20034;-76
2022/11/26 01:46:18;;;;;;;22.42;12.05;;;;;;;3.26;100.00;101306.03;4997045;28;20049;-75
2022/11/26 01:48:45;;;;;;;27.23;14.10;;;;;;;3.45;100.00;101305.13;4981442;28;20097;-75
2022/11/26 01:51:12;;;;;;;29.08;14.18;;;;;;;2.63;100.00;101211.63;4996744;28;20057;-77
2022/11/26 01:53:50;;;;;;;19.00;11.60;;;;;;;3.49;100.00;101338.16;5002721;28;20177;-77
2022/11/26 01:56:26;;;;;;;22.30;11.77;;;;;;;3.62;100.00;101339.56;5013928;28;21087;-77
2022/11/26 01:59:24;;;;;;;24.55;13.00;;;;;;;3.60;100.00;101338.59;5015379;28;20395;-77
2022/11/26 02:01:53;;;;;;;22.42;13.75;;;;;;;2.43;100.00;101206.41;4992871;28;20065;-76
2022/11/26 02:05:09;;;;;;;20.00;13.90;;;;;;;3.52;100.00;101342.59;5007606;28;20080;-76
2022/11/26 02:07:36;;;;;;;23.80;12.30;;;;;;;3.53;100.00;101342.63;4958273;28;20100;-78
2022/11/26 02:10:02;;;;;;;23.55;12.52;;;;;;;3.28;100.00;101338.09;4970883;28;20516;-76
2022/11/26 02:12:28;;;;;;;24.27;14.02;;;;;;;3.31;100.00;101345.13;5001781;28;20119;-76
2022/11/26 02:14:54;;;;;;;22.83;13.82;;;;;;;3.29;100.00;101338.97;4994225;28;20046;-76
2022/11/26 02:17:47;;;;;;;22.27;14.52;;;;;;;3.67;100.00;101350.16;5002380;28;20057;-75
2022/11/26 02:20:22;;;;;;;28.05;12.20;;;;;;;3.56;100.00;101365.28;5005685;28;20046;-76
2022/11/26 02:23:21;;;;;;;23.63;14.27;;;;;;;3.43;100.00;101361.22;5004795;28;20045;-76
2022/11/26 02:26:05;;;;;;;27.55;13.45;;;;;;;3.05;100.00;101359.53;4971401;28;20832;-77
2022/11/26 02:28:50;;;;;;;;;;;;;;;3.31;100.00;101358.09;5007120;28;20041;-76
2022/11/26 02:31:25;;;;;;;24.05;13.60;;;;;;;2.17;100.00;101156.03;4992862;28;19922;-76
2022/11/26 02:34:00;;;;;;;26.70;12.27;;;;;;;2.38;100.00;101207.91;5001346;28;20034;-78
2022/11/26 02:36:41;;;;;;;20.23;12.07;;;;;;;2.38;100.00;101205.31;5004353;28;20046;-76
2022/11/26 02:39:19;;;;;;;20.58;12.27;;;;;;;2.59;100.00;101331.47;5000842;28;20060;-78
2022/11/26 02:41:57;;;;;;;27.00;15.32;;;;;;;2.97;100.00;101353.97;4992379;28;20109;-78
2022/11/26 02:44:29;;;;;;;25.63;15.95;;;;;;;2.45;100.00;101234.97;5004581;28;20136;-76
2022/11/26 02:47:03;;;;;;;21.70;12.73;;;;;;;2.41;100.00;101236.56;4997067;28;20046;-77
2022/11/26 02:49:32;;;;;;;21.77;14.35;;;;;;;2.84;100.00;101289.44;4999618;28;20559;-75
2022/11/26 02:52:02;;;;;;;23.48;15.38;;;;;;;2.06;100.00;101230.59;4979938;28;20107;-75
2022/11/26 02:54:30;;;;;;;29.25;15.18;;;;;;;2.07;100.00;101222.00;4994017;28;20387;-76
2022/11/26 02:56:58;;;;;;;25.33;15.85;;;;;;;1.96;100.00;101217.13;4993032;28;20049;-75
2022/11/26 02:59:24;;;;;;;28.95;17.23;;;;;;;2.57;100.00;101335.69;4994483;28;20058;-76
2022/11/26 03:01:53;;;;;;;30.65;19.35;;;;;;;2.21;100.00;101327.94;4997938;28;20409;-75
2022/11/26 03:04:24;;;;;;;30.35;19.15;;;;;;;1.40;100.00;101224.78;4988962;28;20488;-75
2022/11/26 03:06:52;;;;;;;30.90;17.25;;;;;;;2.11;100.00;101383.56;4998165;28;20034;-77
2022/11/26 03:09:21;;;;;;;31.80;18.35;;;;;;;1.05;100.00;101216.16;5002019;28;20050;-77
2022/11/26 03:11:47;;;;;;;26.23;17.30;;;;;;;2.09;100.00;101369.66;4997839;28;20544;-75
2022/11/26 03:14:12;;;;;;;34.05;15.18;;;;;;;1.36;100.00;101291.78;5003912;28;20038;-77
2022/11/26 03:16:38;;;;;;;31.88;18.73;;;;;;;1.80;100.00;101366.50;4998014;28;20465;-77
2022/11/26 03:19:03;;;;;;;33.42;16.67;;;;;;;1.61;100.00;101332.72;5002725;28;20049;-76
2022/11/26 03:21:31;;;;;;;24.05;14.13;;;;;;;1.47;100.00;101262.19;4991818;28;20058;-76
2022/11/26 03:23:57;;;;;;;33.40;21.65;;;;;;;1.95;100.00;101391.38;4974369;28;20679;-76
2022/11/26 03:26:22;;;;;;;30.90;21.48;;;;;;;1.45;100.00;101292.25;4984178;28;20045;-74
2022/11/26 03:28:48;;;;;;;43.25;27.85;;;;;;;1.81;100.00;101390.66;5001780;28;20042;-76
2022/11/26 03:31:13;;;;;;;37.95;25.00;;;;;;;1.09;100.00;101270.56;5006787;28;20116;-76
2022/11/26 03:33:39;;;;;;;47.63;29.50;;;;;;;1.65;100.00;101396.75;4980836;28;20153;-77
2022/11/26 03:36:05;;;;;;;32.72;28.13;;;;;;;1.58;100.00;101368.78;4983207;28;20536;-77
2022/11/26 03:38:30;;;;;;;37.10;23.15;;;;;;;1.59;100.00;101405.09;5004701;28;20152;-77
2022/11/26 03:41:03;;;;;;;51.70;21.45;;;;;;;1.75;100.00;101379.97;5006912;28;20054;-76
2022/11/26 03:43:28;;;;;;;27.87;19.87;;;;;;;1.08;100.00;101287.78;5009414;28;20091;-77
2022/11/26 03:45:53;;;;;;;26.00;17.00;;;;;;;1.69;100.00;101411.63;4992586;28;20026;-77
2022/11/26 03:48:19;;;;;;;32.25;19.65;;;;;;;1.67;100.00;101408.94;4992093;28;20045;-75
2022/11/26 03:50:45;;;;;;;28.77;18.48;;;;;;;1.35;100.00;101292.59;4997345;28;20383;-77
2022/11/26 03:53:13;;;;;;;44.60;24.40;;;;;;;2.09;100.00;101429.19;5003089;28;20057;-76
2022/11/26 03:55:39;;;;;;;43.15;23.45;;;;;;;1.38;100.00;101303.09;4999419;28;20405;-75
2022/11/26 03:58:04;;;;;;;40.92;24.38;;;;;;;1.71;100.00;101360.84;4994674;28;20030;-78
2022/11/26 04:00:30;;;;;;;30.55;20.85;;;;;;;1.92;100.00;101379.16;4998291;28;20525;-76
2022/11/26 04:02:55;;;;;;;29.52;19.48;;;;;;;1.89;100.00;101392.81;5000735;28;20057;-76
2022/11/26 04:05:21;;;;;;;34.92;21.00;;;;;;;1.94;100.00;101392.16;4997804;28;20522;-78
2022/11/26 04:07:46;;;;;;;30.48;19.35;;;;;;;2.26;100.00;101449.03;4998758;28;20054;-75
2022/11/26 04:10:13;;;;;;;30.48;20.80;;;;;;;1.35;100.00;101305.53;4990426;28;20050;-76
2022/11/26 04:12:38;;;;;;;31.65;21.25;;;;;;;2.26;100.00;101449.03;5004154;28;20038;-78
2022/11/26 04:15:04;;;;;;;31.25;20.52;;;;;;;1.53;100.00;101331.44;5004788;28;20058;-78
2022/11/26 04:17:29;;;;;;;32.72;21.35;;;;;;;2.35;100.00;101463.28;4991116;28;20046;-78
2022/11/26 04:19:55;;;;;;;34.97;18.73;;;;;;;0.93;100.00;101258.53;4990919;28;20054;-75
2022/11/26 04:22:20;;;;;;;30.38;18.25;;;;;;;1.33;100.00;101327.81;5004355;28;20045;-76
2022/11/26 04:24:46;;;;;;;32.55;18.40;;;;;;;2.23;100.00;101468.72;5015301;28;20087;-76
2022/11/26 04:27:11;;;;;;;28.60;20.20;;;;;;;2.19;100.00;101454.72;5009358;28;20058;-77
2022/11/26 04:29:37;;;;;;;31.48;17.27;;;;;;;1.72;100.00;101409.19;5003954;28;20050;-77
2022/11/26 04:32:05;;;;;;;34.17;17.00;;;;;;;2.17;100.00;101451.16;4988929;28;20049;-76
2022/11/26 04:34:31;;;;;;;36.33;21.27;;;;;;;1.53;100.00;101355.59;5004493;28;20034;-75
2022/11/26 04:36:57;;;;;;;25.83;17.83;;;;;;;1.27;100.00;101398.19;5002940;28;20052;-76
2022/11/26 04:39:22;;;;;;;64.55;20.17;;;;;;;1.50;100.00;101458.91;5007820;28;20057;-77
2022/11/26 04:41:48;;;;;;;65.50;20.95;;;;;;;0.97;100.00;101341.47;5000584;28;20453;-77
2022/11/26 04:44:14;;;;;;;29.58;17.95;;;;;;;1.68;100.00;101456.38;5007903;28;20073;-77
2022/11/26 04:46:39;;;;;;;27.83;14.73;;;;;;;1.46;100.00;101463.00;4996049;28;20103;-77
2022/11/26 04:49:05;;;;;;;35.70;18.60;;;;;;;1.43;100.00;101499.06;4977767;28;20035;-77
2022/11/26 04:51:30;;;;;;;27.42;17.35;;;;;;;1.50;100.00;101505.47;5001079;28;20050;-76
2022/11/26 04:53:56;;;;;;;31.13;18.17;;;;;;;1.48;100.00;101491.56;5006057;28;20065;-76
2022/11/26 04:56:22;;;;;;;28.60;17.70;;;;;;;0.93;100.00;101375.69;4981894;28;20042;-75
2022/11/26 04:58:47;;;;;;;24.30;16.85;;;;;;;2.19;100.00;101518.56;4982184;28;20046;-77
2022/11/26 05:01:12;;;;;;;33.65;17.20;;;;;;;1.24;100.00;101370.50;4970266;28;20041;-76
2022/11/26 05:03:38;;;;;;;26.38;15.75;;;;;;;1.62;100.00;101505.22;5013379;28;20050;-75
2022/11/26 05:06:04;;;;;;;24.70;15.63;;;;;;;1.45;100.00;101517.22;5004111;28;20046;-76
2022/11/26 05:08:29;;;;;;;31.35;17.52;;;;;;;0.78;100.00;101388.66;5013604;28;20490;-76
2022/11/26 05:10:57;;;;;;;27.67;15.02;;;;;;;1.68;100.00;101519.34;5000166;28;20096;-77
2022/11/26 05:13:23;;;;;;;59.08;18.23;;;;;;;0.92;100.00;101373.03;5004310;28;20375;-76
2022/11/26 05:15:48;;;;;;;26.10;17.02;;;;;;;1.66;100.00;101543.38;5001325;28;20153;-76
2022/11/26 05:18:14;;;;;;;33.75;17.48;;;;;;;1.67;100.00;101532.22;4988781;28;20059;-75
2022/11/26 05:20:39;;;;;;;29.20;15.95;;;;;;;1.66;100.00;101548.53;4995111;28;20046;-76
2022/11/26 05:23:05;;;;;;;33.20;19.67;;;;;;;1.16;100.00;101448.44;4988486;28;20061;-76
2022/11/26 05:25:30;;;;;;;42.80;22.67;;;;;;;0.87;100.00;101410.63;5001330;28;20482;-76
2022/11/26 05:27:56;;;;;;;52.60;28.00;;;;;;;1.65;100.00;101510.56;4988862;28;20112;-76
2022/11/26 05:30:23;;;;;;;40.65;21.73;;;;;;;0.98;100.00;101437.97;4996225;28;20357;-76
2022/11/26 05:32:48;;;;;;;38.92;21.02;;;;;;;1.45;100.00;101559.53;4996239;28;20182;-75
2022/11/26 05:35:14;;;;;;;33.72;21.27;;;;;;;1.16;100.00;101524.28;4984471;28;20539;-77
2022/11/26 05:37:39;;;;;;;35.70;18.92;;;;;;;1.79;100.00;101573.41;4988287;28;20053;-75
2022/11/26 05:40:06;;;;;;;29.75;19.20;;;;;;;1.09;100.00;101446.31;4982376;28;20116;-78
2022/11/26 05:42:31;;;;;;;35.45;18.83;;;;;;;1.77;100.00;101544.84;4988393;28;20056;-77
2022/11/26 05:44:57;;;;;;;32.58;20.17;;;;;;;1.77;100.00;101586.25;4986759;28;20045;-76
2022/11/26 05:47:22;;;;;;;44.33;20.55;;;;;;;1.14;100.00;101427.66;4990973;28;20081;-78
2022/11/26 05:49:48;;;;;;;33.17;18.05;;;;;;;2.01;100.00;101578.00;4976533;28;20100;-77
2022/11/26 05:52:13;;;;;;;32.85;17.17;;;;;;;1.37;100.00;101532.31;4997432;28;20652;-78
2022/11/26 05:54:39;;;;;;;29.67;18.83;;;;;;;1.01;100.00;101426.13;4999945;28;20057;-76
2022/11/26 05:57:05;;;;;;;36.83;21.27;;;;;;;1.46;100.00;101488.88;4972755;28;20042;-76
2022/11/26 05:59:31;;;;;;;38.33;21.65;;;;;;;1.80;100.00;101549.28;4988621;28;20054;-75
2022/11/26 06:01:56;;;;;;;25.85;17.13;;;;;;;1.84;100.00;101549.53;5001271;28;20049;-75
2022/11/26 06:04:22;;;;;;;35.70;21.50;;;;;;;1.01;100.00;101443.31;5004954;28;20021;-76
2022/11/26 06:06:47;;;;;;;35.22;19.63;;;;;;;1.37;100.00;101560.78;4996864;28;20381;-79
2022/11/26 06:09:13;;;;;;;31.80;20.45;;;;;;;1.59;100.00;101552.53;4989458;28;20513;-77
2022/11/26 06:11:38;;;;;;;38.00;19.25;;;;;;;1.11;100.00;101443.00;4994796;28;20084;-75
2022/11/26 06:14:04;;;;;;;29.88;19.33;;;;;;;1.95;100.00;101583.78;4991481;28;20054;-76
2022/11/26 06:16:31;;;;;;;32.88;21.95;;;;;;;1.98;100.00;101598.56;4998941;28;20053;-75
2022/11/26 06:18:58;;;;;;;36.67;20.73;;;;;;;1.15;100.00;101455.31;5001609;28;20125;-77
2022/11/26 06:21:23;;;;;;;32.28;20.40;;;;;;;2.28;100.00;101617.44;5001630;28;20041;-77
2022/11/26 06:23:48;;;;;;;30.25;18.23;;;;;;;1.35;100.00;101438.28;5001395;28;20049;-78
2022/11/26 06:26:14;;;;;;;41.70;23.95;;;;;;;1.39;100.00;101435.03;4999331;28;20041;-74
2022/11/26 06:28:39;;;;;;;27.02;17.52;;;;;;;2.41;100.00;101578.44;5000389;28;22679;-74
2022/11/26 06:31:07;;;;;;;37.10;20.38;;;;;;;1.84;100.00;101463.25;4992476;28;20112;-74
2022/11/26 06:33:33;;;;;;;37.33;22.00;;;;;;;2.66;100.00;101603.00;4993016;28;20501;-74
2022/11/26 06:36:03;;;;;;;45.65;20.90;;;;;;;2.71;100.00;101594.63;4993809;28;20048;-74
2022/11/26 06:38:29;;;;;;;40.47;22.92;;;;;;;1.32;100.00;101458.78;5006467;28;20050;-73
2022/11/26 06:41:04;;;;;;;37.25;23.45;;;;;;;1.09;100.00;101470.47;5006448;28;20406;-75
2022/11/26 06:43:31;;;;;;;34.58;23.05;;;;;;;1.95;100.00;101624.28;5001620;28;20038;-73
2022/11/26 06:46:02;;;;;;;35.08;23.30;;;;;;;2.17;100.00;101590.97;4998587;28;20050;-74
2022/11/26 06:48:27;;;;;;;36.50;23.50;;;;;;;2.39;100.00;101600.78;4994763;28;20129;-76
2022/11/26 06:50:54;;;;;;;34.08;20.45;;;;;;;2.66;100.00;101634.97;5002104;28;20177;-75
2022/11/26 06:53:20;;;;;;;40.47;23.27;;;;;;;2.10;100.00;101594.94;4992075;28;20506;-77
2022/11/26 06:55:45;;;;;;;37.90;25.23;;;;;;;2.00;100.00;101617.66;4993534;28;20096;-77
2022/11/26 06:58:11;;;;;;;45.55;27.02;;;;;;;2.00;100.00;101639.25;4991883;28;20045;-76
2022/11/26 07:00:36;;;;;;;58.17;26.63;;;;;;;2.06;100.00;101643.88;4987185;28;20063;-77
2022/11/26 07:03:02;;;;;;;49.38;24.88;;;;;;;2.09;100.00;101638.88;4996158;28;20103;-76
2022/11/26 07:05:27;;;;;;;39.15;22.65;;;;;;;1.62;100.00;101598.34;4998862;28;20072;-75
2022/11/26 07:07:53;;;;;;;33.92;22.27;;;;;;;1.94;100.00;101640.63;5002821;28;20049;-76
2022/11/26 07:10:19;;;;;;;46.17;25.70;;;;;;;1.30;100.00;101506.06;4997757;28;20078;-74
2022/11/26 07:12:44;;;;;;;50.63;26.52;;;;;;;1.92;100.00;101588.78;4998039;28;20034;-77
2022/11/26 07:15:10;;;;;;;42.65;28.10;;;;;;;2.72;100.00;101644.78;4993258;28;20050;-75
2022/11/26 07:17:36;;;;;;;41.00;20.85;;;;;;;2.72;100.00;101613.69;5009605;28;20053;-77
2022/11/26 07:20:02;;;;;;;36.42;24.63;;;;;;;3.12;100.00;101664.97;5004216;28;20549;-75
2022/11/26 07:22:27;;;;;;;38.35;19.55;;;;;;;3.12;100.00;101658.06;5004372;28;20049;-75
2022/11/26 07:24:53;;;;;;;39.78;20.85;;;;;;;2.06;100.00;101515.34;5018279;28;20042;-76
2022/11/26 07:27:18;;;;;;;46.92;24.42;;;;;;;3.06;100.00;101667.22;4997187;28;20081;-75
2022/11/26 07:29:44;;;;;;;42.75;24.35;;;;;;;3.37;100.00;101664.47;5008508;28;20046;-75
2022/11/26 07:32:09;;;;;;;49.85;25.98;;;;;;;2.96;100.00;101599.34;4999153;28;20061;-74
2022/11/26 07:34:35;;;;;;;46.97;22.20;;;;;;;1.98;100.00;101510.56;5005937;28;20490;-76
2022/11/26 07:37:00;;;;;;;79.13;26.58;;;;;;;2.57;100.00;101662.13;5004851;28;20044;-75
2022/11/26 07:39:26;;;;;;;45.90;23.90;;;;;;;2.70;100.00;101655.06;5014711;28;20765;-77
2022/11/26 07:41:51;;;;;;;44.03;23.67;;;;;;;1.26;100.00;101510.16;4989745;28;20129;-76
2022/11/26 07:44:17;;;;;;;48.92;24.73;;;;;;;1.80;100.00;101503.63;4998762;28;20085;-75
2022/11/26 07:46:42;;;;;;;44.78;20.85;;;;;;;2.40;100.00;101574.06;4994820;28;20045;-77
2022/11/26 07:49:07;;;;;;;43.38;24.65;;;;;;;3.22;100.00;101677.56;5007220;28;20048;-79
2022/11/26 07:51:35;;;;;;;48.42;23.27;;;;;;;3.06;100.00;101630.94;5000586;28;20049;-77
2022/11/26 07:54:03;;;;;;;36.83;21.67;;;;;;;2.99;100.00;101597.75;5001554;28;20068;-77
2022/11/26 07:56:29;;;;;;;44.50;23.98;;;;;;;3.44;100.00;101668.25;4993856;28;20124;-79
2022/11/26 07:58:54;;;;;;;54.40;25.83;;;;;;;3.44;100.00;101663.97;4994398;28;20121;-76
2022/11/26 08:01:22;;;;;;;49.90;24.75;;;;;;;2.86;100.00;101549.59;5013193;28;20062;-76
2022/11/26 08:03:50;;;;;;;45.42;24.30;;;;;;;2.94;100.00;101550.84;5015861;28;20046;-78
2022/11/26 08:06:21;;;;;;;47.80;20.95;;;;;;;2.54;100.00;101551.44;4987592;28;20068;-78
2022/11/26 08:08:47;;;;;;;62.60;26.88;;;;;;;3.33;100.00;101693.69;5004564;28;20046;-77
2022/11/26 08:11:21;;;;;;;52.45;22.80;;;;;;;2.84;100.00;101549.50;5011473;28;20104;-75
2022/11/26 08:13:48;;;;;;;49.20;27.10;;;;;;;2.62;100.00;101487.06;4997687;28;20066;-77
2022/11/26 08:16:14;;;;;;;52.47;28.73;;;;;;;3.17;100.00;101578.78;4991123;28;20172;-78
2022/11/26 08:18:40;;;;;;;41.35;23.88;;;;;;;3.06;100.00;101706.13;5005164;28;20049;-78
2022/11/26 08:21:05;;;;;;;67.40;30.55;;;;;;;2.22;100.00;101552.38;5005963;28;20531;-76
2022/11/26 08:23:32;;;;;;;59.03;26.50;;;;;;;3.11;100.00;101689.09;4998670;28;20054;-78
2022/11/26 08:25:58;;;;;;;45.70;25.05;;;;;;;2.82;100.00;101552.84;4987923;28;20053;-77
2022/11/26 08:28:23;;;;;;;52.78;28.38;;;;;;;3.81;100.00;101681.31;4992724;28;20041;-77
2022/11/26 08:30:49;;;;;;;45.33;27.13;;;;;;;3.96;100.00;101689.84;4993655;28;20160;-75
2022/11/26 08:33:14;;;;;;;52.25;27.92;;;;;;;3.82;100.00;101672.72;5000870;28;20095;-76
2022/11/26 08:35:40;;;;;;;77.07;30.67;;;;;;;4.22;100.00;101705.75;4999838;28;20065;-76
2022/11/26 08:38:06;;;;;;;55.72;26.85;;;;;;;4.21;100.00;101675.38;5000284;28;20493;-77
2022/11/26 08:40:32;;;;;;;51.22;29.70;;;;;;;4.47;100.00;101699.97;4996695;28;20558;-75
2022/11/26 08:42:57;;;;;;;45.67;26.13;;;;;;;4.47;100.00;101680.88;4996041;28;20133;-76
2022/11/26 08:45:23;;;;;;;55.63;28.13;;;;;;;3.27;100.00;101509.22;4993739;28;20148;-75
2022/11/26 08:47:48;;;;;;;52.88;27.23;;;;;;;3.85;100.00;101643.41;4996752;28;20141;-77
2022/11/26 08:50:15;;;;;;;54.05;30.30;;;;;;;4.26;100.00;101673.00;4998079;28;23034;-78
2022/11/26 08:52:41;;;;;;;56.80;29.55;;;;;;;4.17;100.00;101694.28;4999495;28;20461;-76
2022/11/26 08:55:07;;;;;;;64.20;29.80;;;;;;;3.36;100.00;101522.59;4996833;28;20040;-78
2022/11/26 08:57:32;;;;;;;54.75;30.13;;;;;;;4.52;100.00;101689.78;5005665;28;20481;-78
2022/11/26 08:59:59;;;;;;;59.15;29.45;;;;;;;4.76;100.00;101690.00;5000668;28;20457;-78
2022/11/26 09:02:24;;;;;;;64.20;28.13;;;;;;;4.92;100.00;101650.84;4995322;28;20054;-78
2022/11/26 09:04:50;;;;;;;65.03;30.90;;;;;;;5.11;100.00;101669.84;4987810;28;20982;-76
2022/11/26 09:07:15;;;;;;;76.28;36.25;;;;;;;5.04;100.00;101663.47;5008387;28;20038;-74
2022/11/26 09:09:40;;;;;;;63.53;35.22;;;;;;;4.40;100.00;101516.00;4996539;28;20050;-79
2022/11/26 09:12:06;;;;;;;63.05;34.97;;;;;;;4.94;100.00;101654.41;5002761;28;20056;-77
2022/11/26 09:14:39;;;;;;;67.72;31.55;;;;;;;5.17;100.00;101668.34;5000300;28;20058;-76
2022/11/26 09:17:06;;;;;;;71.13;36.08;;;;;;;4.48;100.00;101521.56;4981701;28;20665;-76
2022/11/26 09:19:32;;;;;;;59.15;31.23;;;;;;;4.47;100.00;101520.63;5001663;28;20038;-76
2022/11/26 09:21:58;;;;;;;61.05;34.20;;;;;;;4.79;100.00;101505.50;4981037;28;20046;-80
2022/11/26 09:24:24;;;;;;;59.75;31.67;;;;;;;5.57;100.00;101658.72;4981131;28;20049;-77
2022/11/26 09:26:50;;;;;;;63.97;34.90;;;;;;;5.54;100.00;101645.56;5001423;28;20605;-77
2022/11/26 09:29:19;;;;;;;63.90;33.15;;;;;;;4.20;100.00;101643.34;5008098;28;20050;-76
2022/11/26 09:31:46;;;;;;;56.03;33.47;;;;;;;3.89;100.00;101500.84;4973087;28;20076;-76
2022/11/26 09:34:12;;;;;;;61.63;35.78;;;;;;;5.35;100.00;101636.13;4993545;28;20049;-75
2022/11/26 09:36:37;;;;;;;67.90;35.60;;;;;;;5.48;100.00;101635.81;4997119;28;20041;-76
2022/11/26 09:39:04;;;;;;;57.47;34.58;;;;;;;4.81;100.00;101488.28;5005406;28;20045;-76
2022/11/26 09:41:48;;;;;;;52.05;35.28;;;;;;;5.93;100.00;101638.47;5000623;28;20596;-75
2022/11/26 09:44:43;;;;;;;66.07;34.10;;;;;;;5.14;100.00;101500.84;4992848;28;20054;-76
2022/11/26 09:47:23;;;;;;;78.72;37.55;;;;;;;5.05;100.00;101520.44;4987220;28;20047;-76
2022/11/26 09:50:25;;;;;;;67.18;37.13;;;;;;;6.01;100.00;101633.56;4998130;28;20049;-77
2022/11/26 09:53:02;;;;;;;78.18;48.33;;;;;;;6.17;100.00;101628.09;4984388;28;20046;-76
2022/11/26 09:55:34;;;;;;;60.20;34.90;;;;;;;5.48;100.00;101498.75;4999110;28;20046;-77
2022/11/26 09:58:30;;;;;;;78.93;38.10;;;;;;;5.58;100.00;101499.09;4998495;28;20041;-76
2022/11/26 10:00:58;;;;;;;66.32;37.65;;;;;;;5.35;100.00;101506.00;4995996;28;20047;-77
2022/11/26 10:03:36;;;;;;;67.32;35.45;;;;;;;5.80;100.00;101641.41;4995641;28;20046;-76
2022/11/26 10:06:22;;;;;;;65.22;33.95;;;;;;;6.15;100.00;101641.91;5011455;28;20250;-76
2022/11/26 10:09:09;;;;;;;55.38;30.48;;;;;;;5.52;100.00;101504.06;4999859;28;20049;-76
2022/11/26 10:12:19;;;;;;;58.10;33.75;;;;;;;6.45;100.00;101629.13;4996479;28;20050;-76
2022/11/26 10:14:58;;;;;;;65.13;37.03;;;;;;;6.34;100.00;101632.25;5001001;28;20054;-75
2022/11/26 10:17:33;;;;;;;76.95;34.03;;;;;;;5.43;100.00;101500.28;5005554;28;20046;-76
2022/11/26 10:20:49;;;;;;;61.55;34.85;;;;;;;6.26;100.00;101625.84;5001990;28;20089;-77
2022/11/26 10:23:21;;;;;;;53.25;32.78;;;;;;;6.22;100.00;101569.22;4967778;28;20370;-78
2022/11/26 10:26:01;;;;;;;57.25;35.63;;;;;;;6.99;100.00;101629.28;4984812;28;20064;-78
2022/11/26 10:28:31;;;;;;;58.75;32.20;;;;;;;6.76;100.00;101618.94;4988390;28;20050;-76
2022/11/26 10:31:17;;;;;;;69.20;34.97;;;;;;;6.25;100.00;101487.63;5002761;28;20738;-77
2022/11/26 10:34:09;;;;;;;58.45;33.78;;;;;;;7.38;100.00;101594.91;5002114;28;20081;-78
2022/11/26 10:36:38;;;;;;;66.28;34.72;;;;;;;7.48;100.00;101570.84;5000968;28;20062;-76
2022/11/26 10:39:06;;;;;;;62.45;36.08;;;;;;;7.21;100.00;101512.53;4988660;28;20456;-79
2022/11/26 10:41:34;;;;;;;60.15;34.63;;;;;;;7.87;100.00;101596.44;4985840;28;20065;-75
2022/11/26 10:44:38;;;;;;;63.30;35.30;;;;;;;8.11;100.00;101626.75;4989114;28;20436;-78
2022/11/26 10:47:20;;;;;;;;;;;;;;;8.25;100.00;101622.81;4993490;28;20050;-76
2022/11/26 10:49:46;;;;;;;56.45;33.00;;;;;;;7.98;100.00;101584.59;5001837;28;20397;-78
2022/11/26 10:52:16;;;;;;;63.97;32.85;;;;;;;7.79;100.00;101572.69;4999806;28;20026;-75
2022/11/26 10:54:43;;;;;;;67.55;39.75;;;;;;;7.39;100.00;101498.34;5000714;28;20052;-77
2022/11/26 10:57:09;;;;;;;65.47;37.30;;;;;;;7.78;100.00;101625.78;5006517;28;20050;-74
2022/11/26 10:59:44;;;;;;;56.85;38.17;;;;;;;7.21;100.00;101491.66;4991840;28;20490;-76
2022/11/26 11:02:19;;;;;;;67.60;39.22;;;;;;;7.83;100.00;101642.47;5003319;28;20058;-75
2022/11/26 11:04:48;;;;;;;53.00;33.85;;;;;;;7.72;100.00;101633.41;4995223;28;20058;-74
2022/11/26 11:07:32;;;;;;;53.85;33.85;;;;;;;7.76;100.00;101618.75;4998474;28;20046;-76
2022/11/26 11:10:07;;;;;;;56.95;34.83;;;;;;;7.91;100.00;101628.75;4994559;28;21413;-77
2022/11/26 11:12:36;;;;;;;62.80;35.20;;;;;;;7.75;100.00;101612.63;4991821;28;20593;-77
2022/11/26 11:15:17;;;;;;;55.42;35.70;;;;;;;8.05;100.00;101645.75;5000873;28;20080;-77
2022/11/26 11:17:43;;;;;;;60.67;39.80;;;;;;;7.71;100.00;101562.84;5008441;28;20050;-78
2022/11/26 11:20:17;;;;;;;67.03;39.17;;;;;;;7.90;100.00;101629.63;5005033;28;20054;-76